Time;durP1;ratioP1;P1;durP2;ratioP2;P2;SDS_P1;SDS_P2;PMS_P1;PMS_P2;Temp;Humidity;BMP_temperature;BMP_pressure;BME280_temperature;BME280_humidity;BME280_pressure;Samples;Min_cycle;Max_cycle;Signal;HPM_P1;HPM_P2
2022/04/05 00:00:11;;;;;;;3.08;2.83;;;5.20;99.90;;;;;;4981344;28;20508;-47
2022/04/05 00:02:38;;;;;;;4.38;3.72;;;5.20;99.90;;;;;;4981541;28;20391;-48
2022/04/05 00:05:05;;;;;;;2.78;2.45;;;5.20;99.90;;;;;;4981482;28;20229;-48
2022/04/05 00:07:32;;;;;;;2.60;2.40;;;5.30;99.90;;;;;;4982587;28;20682;-51
2022/04/05 00:10:00;;;;;;;3.05;2.85;;;5.30;99.90;;;;;;4983629;28;20262;-48
2022/04/05 00:12:33;;;;;;;3.50;3.22;;;5.30;99.90;;;;;;4981185;28;20280;-51
2022/04/05 00:15:00;;;;;;;3.40;3.10;;;5.30;99.90;;;;;;4981259;28;20525;-52
2022/04/05 00:17:27;;;;;;;3.90;3.00;;;5.30;99.90;;;;;;4981019;28;20229;-51
2022/04/05 00:19:54;;;;;;;3.97;3.67;;;5.10;99.90;;;;;;4981323;28;20253;-50
2022/04/05 00:22:21;;;;;;;3.95;3.63;;;5.20;99.90;;;;;;4981272;28;20253;-51
2022/04/05 00:24:50;;;;;;;2.65;2.45;;;5.30;99.90;;;;;;4981226;28;20241;-51
2022/04/05 00:27:17;;;;;;;2.90;2.65;;;5.30;99.90;;;;;;4981109;28;20225;-52
2022/04/05 00:29:45;;;;;;;4.07;3.60;;;5.30;99.90;;;;;;4981286;28;20439;-48
2022/04/05 00:32:13;;;;;;;6.22;3.30;;;5.20;99.90;;;;;;4986547;28;20209;-51
2022/04/05 00:34:40;;;;;;;3.58;3.28;;;5.30;99.90;;;;;;4989332;28;20205;-52
2022/04/05 00:37:07;;;;;;;3.67;3.40;;;5.40;99.90;;;;;;4982714;28;20229;-49
2022/04/05 00:39:35;;;;;;;3.40;3.10;;;5.50;99.90;;;;;;4981627;28;20209;-50
2022/04/05 00:42:02;;;;;;;3.70;3.40;;;5.40;99.90;;;;;;4981783;28;20205;-48
2022/04/05 00:44:29;;;;;;;3.50;3.20;;;5.30;99.90;;;;;;4968509;28;20202;-49
2022/04/05 00:47:10;;;;;;;6.80;3.67;;;5.30;99.90;;;;;;4982712;28;20222;-47
2022/04/05 00:49:37;;;;;;;4.35;4.03;;;5.30;99.90;;;;;;4984786;28;20507;-51
2022/04/05 00:52:05;;;;;;;3.17;2.97;;;5.30;99.90;;;;;;4986097;28;20213;-48
2022/04/05 00:54:35;;;;;;;5.35;4.05;;;5.30;99.90;;;;;;4982467;28;20215;-49
2022/04/05 00:57:06;;;;;;;3.70;3.25;;;5.30;99.90;;;;;;4980797;28;20214;-49
2022/04/05 00:59:35;;;;;;;3.83;3.50;;;5.30;99.90;;;;;;4981754;28;20244;-49
2022/04/05 01:02:02;;;;;;;4.18;3.88;;;5.30;99.90;;;;;;4980410;28;20258;-53
2022/04/05 01:04:34;;;;;;;5.75;5.25;;;5.30;99.90;;;;;;4981339;28;20216;-51
2022/04/05 01:07:08;;;;;;;3.63;3.33;;;5.40;99.90;;;;;;4980565;28;20233;-48
2022/04/05 01:09:37;;;;;;;3.83;3.50;;;5.40;99.90;;;;;;4982841;28;20469;-48
2022/04/05 01:12:23;;;;;;;4.20;3.80;;;5.50;99.90;;;;;;4984439;28;20236;-53
2022/04/05 01:14:52;;;;;;;4.28;3.88;;;5.60;99.90;;;;;;4984560;28;20213;-54
2022/04/05 01:17:20;;;;;;;4.72;4.15;;;5.50;99.90;;;;;;4984763;28;20218;-50
2022/04/05 01:19:48;;;;;;;3.63;3.33;;;5.50;99.90;;;;;;4984452;28;20396;-51
2022/04/05 01:22:15;;;;;;;4.40;4.10;;;5.50;99.90;;;;;;4984826;28;20210;-48
2022/04/05 01:24:43;;;;;;;5.78;4.20;;;5.50;99.90;;;;;;4984188;28;20214;-51
2022/04/05 01:27:16;;;;;;;4.10;3.80;;;5.50;99.90;;;;;;4984155;28;20430;-50
2022/04/05 01:29:43;;;;;;;4.00;3.60;;;5.50;99.90;;;;;;4984335;28;20221;-49
2022/04/05 01:32:11;;;;;;;3.03;2.83;;;5.60;99.90;;;;;;4984061;28;20246;-48
2022/04/05 01:34:39;;;;;;;5.38;4.72;;;5.60;99.90;;;;;;4984137;28;20382;-55
2022/04/05 01:37:10;;;;;;;4.70;4.30;;;5.60;99.90;;;;;;4984045;28;20222;-51
2022/04/05 01:39:39;;;;;;;4.20;3.80;;;5.60;99.90;;;;;;4984107;28;20278;-49
2022/04/05 01:42:09;;;;;;;5.38;4.88;;;5.50;99.90;;;;;;4983518;28;20457;-48
2022/04/05 01:44:38;;;;;;;4.00;3.60;;;5.50;99.90;;;;;;4983812;28;20198;-50
2022/04/05 01:47:09;;;;;;;4.72;4.20;;;5.40;99.90;;;;;;4983396;28;20261;-51
2022/04/05 01:49:38;;;;;;;4.03;3.72;;;5.50;99.90;;;;;;4984009;28;20226;-48
2022/04/05 01:52:05;;;;;;;6.95;4.95;;;5.60;99.90;;;;;;4983620;28;20225;-48
2022/04/05 01:54:33;;;;;;;4.85;4.07;;;5.50;99.90;;;;;;4983825;28;20229;-51
2022/04/05 01:57:00;;;;;;;4.47;3.70;;;5.40;99.90;;;;;;4983289;28;20222;-51
2022/04/05 01:59:31;;;;;;;4.60;4.20;;;5.50;99.90;;;;;;4983818;28;20204;-48
2022/04/05 02:02:03;;;;;;;4.45;3.97;;;5.50;99.90;;;;;;4983545;28;20202;-53
2022/04/05 02:04:30;;;;;;;4.82;4.40;;;5.50;99.90;;;;;;4983460;28;20209;-49
2022/04/05 02:06:57;;;;;;;5.53;5.03;;;5.40;99.90;;;;;;4982826;28;20261;-50
2022/04/05 02:09:25;;;;;;;5.53;4.32;;;5.50;99.90;;;;;;4983438;28;20429;-48
2022/04/05 02:11:55;;;;;;;5.15;4.65;;;5.60;99.90;;;;;;4983641;28;20202;-50
2022/04/05 02:14:23;;;;;;;6.00;5.43;;;5.50;99.90;;;;;;4983236;28;20206;-52
2022/04/05 02:16:50;;;;;;;7.25;4.68;;;5.60;99.90;;;;;;4983253;28;20214;-49
2022/04/05 02:19:17;;;;;;;8.88;5.22;;;5.40;99.90;;;;;;4983156;28;20273;-50
2022/04/05 02:21:44;;;;;;;7.28;4.20;;;5.40;99.90;;;;;;4982657;28;20206;-49
2022/04/05 02:24:12;;;;;;;8.57;5.87;;;5.40;99.90;;;;;;4983524;28;20225;-54
2022/04/05 02:26:40;;;;;;;4.88;3.90;;;5.40;99.90;;;;;;4983058;28;20214;-47
2022/04/05 02:29:08;;;;;;;4.93;4.20;;;5.40;99.90;;;;;;4983671;28;20545;-48
2022/04/05 02:31:35;;;;;;;4.50;3.88;;;5.50;99.90;;;;;;4984500;28;20257;-49
2022/04/05 02:34:02;;;;;;;5.35;4.55;;;5.50;99.90;;;;;;4983855;28;20277;-52
2022/04/05 02:36:29;;;;;;;5.68;4.88;;;5.50;99.90;;;;;;4983184;28;20220;-48
2022/04/05 02:39:00;;;;;;;5.40;4.63;;;5.50;99.90;;;;;;4983039;28;20249;-50
2022/04/05 02:41:28;;;;;;;5.10;4.68;;;5.60;99.90;;;;;;4982621;28;20269;-51
2022/04/05 02:43:55;;;;;;;5.45;4.00;;;5.60;99.90;;;;;;4983982;28;20241;-50
2022/04/05 02:46:25;;;;;;;4.72;3.90;;;5.50;99.90;;;;;;4983807;28;20209;-49
2022/04/05 02:48:54;;;;;;;5.18;4.68;;;5.50;99.90;;;;;;4983159;28;20245;-51
2022/04/05 02:51:23;;;;;;;6.32;4.68;;;5.50;99.90;;;;;;4981844;28;20449;-52
2022/04/05 02:53:51;;;;;;;4.03;3.72;;;5.60;99.90;;;;;;4982938;28;20256;-49
2022/04/05 02:56:18;;;;;;;4.55;3.83;;;5.60;99.90;;;;;;4982729;28;20333;-50
2022/04/05 02:58:47;;;;;;;5.07;4.53;;;5.60;99.90;;;;;;4982757;28;20457;-51
2022/04/05 03:01:16;;;;;;;4.35;3.35;;;5.60;99.90;;;;;;4982695;28;20270;-48
2022/04/05 03:03:44;;;;;;;4.13;3.20;;;5.60;99.90;;;;;;4982700;28;20250;-48
2022/04/05 03:06:14;;;;;;;3.63;3.22;;;5.60;99.90;;;;;;4982612;28;20203;-50
2022/04/05 03:08:42;;;;;;;4.20;3.78;;;5.60;99.90;;;;;;4982321;28;20225;-50
2022/04/05 03:11:09;;;;;;;4.55;4.00;;;5.60;99.90;;;;;;4981949;28;20253;-50
2022/04/05 03:13:36;;;;;;;4.85;3.78;;;5.70;99.90;;;;;;4982163;28;20229;-52
2022/04/05 03:16:06;;;;;;;5.05;4.32;;;5.60;99.90;;;;;;4981895;28;20225;-50
2022/04/05 03:18:35;;;;;;;4.50;4.10;;;5.60;99.90;;;;;;4984472;28;20222;-50
2022/04/05 03:21:02;;;;;;;4.60;4.20;;;5.60;99.90;;;;;;4983272;28;20202;-50
2022/04/05 03:23:29;;;;;;;4.05;3.45;;;5.70;99.90;;;;;;4982116;28;20198;-50
2022/04/05 03:25:58;;;;;;;4.15;3.75;;;5.70;99.90;;;;;;4981910;28;20263;-50
2022/04/05 03:28:25;;;;;;;3.67;3.38;;;5.70;99.90;;;;;;4981506;28;20237;-49
2022/04/05 03:30:53;;;;;;;4.40;3.30;;;5.70;99.90;;;;;;4981992;28;20201;-48
2022/04/05 03:33:20;;;;;;;4.45;4.00;;;5.90;99.90;;;;;;4981067;28;20390;-48
2022/04/05 03:35:49;;;;;;;3.55;3.25;;;5.90;99.90;;;;;;4981878;28;20436;-48
2022/04/05 03:38:19;;;;;;;3.03;2.83;;;5.80;99.90;;;;;;4981398;28;20634;-54
2022/04/05 03:40:46;;;;;;;3.90;3.60;;;5.70;99.90;;;;;;4982065;28;20205;-50
2022/04/05 03:43:14;;;;;;;3.25;2.95;;;5.80;99.90;;;;;;4981526;28;20241;-51
2022/04/05 03:45:41;;;;;;;4.05;3.65;;;5.80;99.90;;;;;;4981912;28;20233;-48
2022/04/05 03:48:09;;;;;;;3.42;3.13;;;5.80;99.90;;;;;;4981577;28;20222;-50
2022/04/05 03:50:36;;;;;;;3.88;3.58;;;5.80;99.90;;;;;;4981236;28;20248;-52
2022/04/05 03:53:04;;;;;;;3.33;3.03;;;5.80;99.90;;;;;;4981183;28;20206;-52
2022/04/05 03:55:31;;;;;;;3.90;3.50;;;5.80;99.90;;;;;;4981499;28;20237;-51
2022/04/05 03:57:59;;;;;;;3.88;3.47;;;5.90;99.90;;;;;;4981626;28;20237;-49
2022/04/05 04:00:26;;;;;;;3.88;3.08;;;5.80;99.90;;;;;;4980505;28;20217;-54
2022/04/05 04:02:53;;;;;;;4.90;3.10;;;5.90;99.90;;;;;;4977863;28;20244;-52
2022/04/05 04:05:22;;;;;;;3.17;2.88;;;5.90;99.90;;;;;;4982661;28;20201;-55
2022/04/05 04:07:49;;;;;;;3.58;3.25;;;5.80;99.90;;;;;;4986723;28;20293;-50
2022/04/05 04:10:16;;;;;;;3.95;3.63;;;5.80;99.90;;;;;;4983547;28;20308;-49
2022/04/05 04:12:50;;;;;;;3.83;3.53;;;5.70;99.90;;;;;;4981539;28;20531;-48
2022/04/05 04:15:17;;;;;;;3.80;3.50;;;5.80;99.90;;;;;;4979153;28;20198;-49
2022/04/05 04:17:44;;;;;;;3.83;3.40;;;5.90;99.90;;;;;;4976406;28;20566;-53
2022/04/05 04:20:12;;;;;;;2.90;2.70;;;5.90;99.90;;;;;;4980810;28;20217;-49
2022/04/05 04:22:42;;;;;;;3.78;3.47;;;5.90;99.90;;;;;;4980933;28;20206;-47
2022/04/05 04:25:12;;;;;;;2.85;2.65;;;5.80;99.90;;;;;;4978967;28;20256;-49
2022/04/05 04:27:39;;;;;;;3.28;2.92;;;5.90;99.90;;;;;;4978861;28;20234;-50
2022/04/05 04:30:07;;;;;;;5.15;4.70;;;5.90;99.90;;;;;;4980348;28;20237;-54
2022/04/05 04:32:34;;;;;;;2.85;2.65;;;6.00;99.90;;;;;;4981049;28;20540;-49
2022/04/05 04:35:02;;;;;;;3.50;3.20;;;6.00;99.90;;;;;;4980519;28;20398;-54
2022/04/05 04:37:30;;;;;;;3.30;3.00;;;6.10;99.90;;;;;;4980801;28;20218;-51
2022/04/05 04:39:57;;;;;;;3.10;2.90;;;6.00;99.90;;;;;;4980302;28;20264;-53
2022/04/05 04:42:25;;;;;;;3.05;2.80;;;6.00;99.90;;;;;;4978454;28;20206;-49
2022/04/05 04:44:52;;;;;;;3.40;3.05;;;5.80;99.90;;;;;;4982982;28;20206;-52
2022/04/05 04:47:19;;;;;;;3.20;3.00;;;5.60;99.90;;;;;;4984392;28;20429;-49
2022/04/05 04:49:47;;;;;;;4.15;3.85;;;5.60;99.90;;;;;;4984847;28;20590;-50
2022/04/05 04:52:20;;;;;;;3.88;3.53;;;5.50;99.90;;;;;;4984708;28;20206;-49
2022/04/05 04:54:47;;;;;;;5.95;4.32;;;5.50;99.90;;;;;;4985950;28;20625;-49
2022/04/05 04:57:14;;;;;;;3.63;3.40;;;5.70;99.90;;;;;;4984344;28;20230;-49
2022/04/05 04:59:41;;;;;;;4.38;3.95;;;5.60;99.90;;;;;;4969619;28;20513;-51
2022/04/05 05:02:08;;;;;;;4.35;3.95;;;5.70;99.90;;;;;;4977444;28;20522;-48
2022/04/05 05:04:36;;;;;;;4.10;3.75;;;5.60;99.90;;;;;;4984508;28;20557;-49
2022/04/05 05:07:10;;;;;;;5.65;5.18;;;5.70;99.90;;;;;;4983901;28;20264;-49
2022/04/05 05:09:40;;;;;;;6.15;4.65;;;5.50;99.90;;;;;;4983957;28;20252;-53
2022/04/05 05:12:11;;;;;;;5.50;5.00;;;5.40;99.90;;;;;;4983851;28;20233;-48
2022/04/05 05:14:38;;;;;;;4.75;4.13;;;5.30;99.90;;;;;;4983990;28;20224;-52
2022/04/05 05:17:06;;;;;;;4.38;3.28;;;5.30;99.90;;;;;;4984244;28;20382;-49
2022/04/05 05:19:34;;;;;;;4.60;3.30;;;5.30;99.90;;;;;;4983959;28;20253;-51
2022/04/05 05:22:01;;;;;;;4.85;3.20;;;5.30;99.90;;;;;;4983938;28;20513;-49
2022/04/05 05:24:28;;;;;;;3.88;3.38;;;5.30;99.90;;;;;;4980882;28;20205;-53
2022/04/05 05:26:56;;;;;;;3.30;3.05;;;5.30;99.90;;;;;;4983510;28;20248;-47
2022/04/05 05:29:26;;;;;;;4.10;3.80;;;5.40;99.90;;;;;;4983999;28;20459;-49
2022/04/05 05:31:53;;;;;;;4.57;3.78;;;5.50;99.90;;;;;;4983431;28;20452;-48
2022/04/05 05:34:22;;;;;;;3.42;3.22;;;5.50;99.90;;;;;;4983947;28;20248;-49
2022/04/05 05:36:50;;;;;;;4.00;3.70;;;5.50;99.90;;;;;;4984081;28;20225;-47
2022/04/05 05:39:17;;;;;;;3.47;3.17;;;5.60;99.90;;;;;;4983569;28;20298;-52
2022/04/05 05:41:47;;;;;;;5.22;4.00;;;5.70;99.90;;;;;;4983795;28;20225;-52
2022/04/05 05:44:14;;;;;;;3.88;3.58;;;5.60;99.90;;;;;;4980978;28;20214;-54
2022/04/05 05:46:41;;;;;;;4.10;3.33;;;5.60;99.90;;;;;;4983263;28;20281;-52
2022/04/05 05:49:11;;;;;;;4.15;3.85;;;5.60;99.90;;;;;;4983568;28;20226;-52
2022/04/05 05:51:38;;;;;;;5.07;4.68;;;5.60;99.90;;;;;;4982841;28;20528;-48
2022/04/05 05:54:08;;;;;;;3.53;3.25;;;5.60;99.90;;;;;;4983579;28;20247;-51
2022/04/05 05:56:35;;;;;;;4.13;3.83;;;5.60;99.90;;;;;;4982338;28;20401;-50
2022/04/05 05:59:02;;;;;;;3.38;2.88;;;5.70;99.90;;;;;;4979065;28;20278;-49
2022/04/05 06:01:30;;;;;;;4.05;3.70;;;5.60;99.90;;;;;;4984176;28;20248;-49
2022/04/05 06:03:57;;;;;;;3.63;3.33;;;5.60;99.90;;;;;;4985402;28;20214;-53
2022/04/05 06:06:25;;;;;;;6.95;4.00;;;5.70;99.90;;;;;;4982574;28;20213;-50
2022/04/05 06:08:52;;;;;;;3.85;3.15;;;5.70;99.90;;;;;;4983351;28;20257;-53
2022/04/05 06:11:30;;;;;;;5.35;3.42;;;5.70;99.90;;;;;;4983729;28;20213;-48
2022/04/05 06:14:02;;;;;;;4.47;4.10;;;5.80;99.90;;;;;;4982610;28;20264;-49
2022/04/05 06:16:29;;;;;;;4.25;3.83;;;5.90;99.90;;;;;;4983187;28;20198;-49
2022/04/05 06:18:59;;;;;;;4.20;3.90;;;5.90;99.90;;;;;;4983248;28;20229;-52
2022/04/05 06:21:33;;;;;;;5.57;5.07;;;5.90;99.90;;;;;;4983075;28;20202;-51
2022/04/05 06:24:00;;;;;;;4.30;3.90;;;6.10;99.90;;;;;;4982765;28;20524;-53
2022/04/05 06:26:28;;;;;;;6.07;4.75;;;6.10;99.90;;;;;;4982789;28;20218;-47
2022/04/05 06:28:56;;;;;;;4.07;3.67;;;6.20;99.90;;;;;;4982946;28;20230;-55
2022/04/05 06:31:23;;;;;;;4.10;2.92;;;6.30;99.90;;;;;;4981069;28;20410;-48
2022/04/05 06:33:51;;;;;;;4.07;3.42;;;6.20;99.90;;;;;;4982905;28;20623;-53
2022/04/05 06:36:18;;;;;;;5.70;3.47;;;6.20;99.90;;;;;;4982488;28;20206;-50
2022/04/05 06:38:46;;;;;;;3.90;3.60;;;6.40;99.90;;;;;;4982598;28;20294;-52
2022/04/05 06:41:21;;;;;;;3.38;3.10;;;6.30;99.90;;;;;;4975630;28;20198;-51
2022/04/05 06:43:50;;;;;;;4.80;3.45;;;6.40;99.90;;;;;;4982523;28;20220;-49
2022/04/05 06:46:17;;;;;;;3.35;3.05;;;6.50;99.90;;;;;;4981800;28;20199;-47
2022/04/05 06:48:44;;;;;;;3.42;3.13;;;6.50;99.90;;;;;;4982559;28;20226;-54
2022/04/05 06:51:11;;;;;;;3.38;3.10;;;6.60;99.90;;;;;;4982170;28;20494;-48
2022/04/05 06:53:42;;;;;;;3.20;2.90;;;6.50;99.90;;;;;;4981908;28;20202;-52
2022/04/05 06:56:10;;;;;;;4.22;3.83;;;6.60;99.90;;;;;;4982129;28;20206;-52
2022/04/05 06:58:38;;;;;;;3.35;3.05;;;6.60;99.90;;;;;;4981249;28;20249;-49
2022/04/05 07:01:06;;;;;;;10.25;3.63;;;6.60;99.90;;;;;;4980435;28;20407;-50
2022/04/05 07:03:33;;;;;;;3.30;3.05;;;6.60;99.90;;;;;;4981489;28;20236;-50
2022/04/05 07:06:03;;;;;;;3.28;2.95;;;6.50;99.90;;;;;;4981912;28;20202;-50
2022/04/05 07:08:30;;;;;;;3.30;2.67;;;6.60;99.90;;;;;;4981978;28;20230;-53
2022/04/05 07:10:57;;;;;;;4.57;3.20;;;6.70;99.90;;;;;;4980702;28;20230;-51
2022/04/05 07:13:25;;;;;;;3.63;3.33;;;6.70;99.90;;;;;;4982288;28;20217;-52
2022/04/05 07:15:53;;;;;;;4.20;3.88;;;6.80;99.90;;;;;;4983239;28;20202;-51
2022/04/05 07:18:20;;;;;;;3.03;2.83;;;6.70;99.90;;;;;;4986063;28;20569;-51
2022/04/05 07:20:48;;;;;;;4.80;3.65;;;6.70;99.90;;;;;;4983216;28;20249;-48
2022/04/05 07:23:18;;;;;;;3.55;2.65;;;6.90;99.90;;;;;;4983150;28;20210;-50
2022/04/05 07:25:45;;;;;;;4.22;2.97;;;6.90;99.90;;;;;;4982133;28;20202;-51
2022/04/05 07:28:12;;;;;;;3.60;3.30;;;6.80;99.90;;;;;;4981790;28;20225;-54
2022/04/05 07:30:39;;;;;;;4.20;2.92;;;6.80;99.90;;;;;;4981833;28;20272;-53
2022/04/05 07:33:07;;;;;;;4.10;3.25;;;7.00;99.90;;;;;;4981314;28;20246;-53
2022/04/05 07:35:35;;;;;;;3.10;2.47;;;7.10;99.90;;;;;;4981455;28;20202;-51
2022/04/05 07:38:02;;;;;;;5.85;3.25;;;6.90;99.90;;;;;;4981360;28;20226;-53
2022/04/05 07:40:47;;;;;;;2.90;2.13;;;6.80;99.90;;;;;;4975123;28;20405;-49
2022/04/05 07:43:16;;;;;;;2.33;2.22;;;6.80;99.90;;;;;;4981497;28;20276;-50
2022/04/05 07:45:44;;;;;;;2.20;2.10;;;6.80;99.90;;;;;;4981392;28;20208;-50
2022/04/05 07:48:11;;;;;;;2.88;2.67;;;6.80;99.90;;;;;;4981330;28;20567;-49
2022/04/05 07:50:39;;;;;;;3.63;2.53;;;6.80;99.90;;;;;;4981259;28;20237;-50
2022/04/05 07:53:11;;;;;;;2.60;2.40;;;6.80;99.90;;;;;;4981628;28;20389;-50
2022/04/05 07:55:38;;;;;;;2.95;2.70;;;6.80;99.90;;;;;;4981328;28;20539;-51
2022/04/05 07:58:05;;;;;;;3.70;2.75;;;6.60;99.90;;;;;;4980997;28;20218;-49
2022/04/05 08:00:32;;;;;;;2.75;2.55;;;6.70;99.90;;;;;;4981276;28;20241;-51
2022/04/05 08:02:59;;;;;;;2.35;2.15;;;6.80;99.90;;;;;;4980774;28;20521;-51
2022/04/05 08:05:27;;;;;;;2.80;2.60;;;6.80;99.90;;;;;;4981300;28;20220;-52
2022/04/05 08:07:55;;;;;;;3.83;3.53;;;6.80;99.90;;;;;;4975217;28;20246;-53
2022/04/05 08:10:22;;;;;;;3.00;2.80;;;6.70;99.90;;;;;;4979946;28;20222;-48
2022/04/05 08:12:50;;;;;;;4.18;3.75;;;6.60;99.90;;;;;;4980854;28;20194;-50
2022/04/05 08:15:22;;;;;;;4.35;3.97;;;6.60;99.90;;;;;;4972814;28;20198;-54
2022/04/05 08:17:52;;;;;;;3.90;3.60;;;6.70;99.90;;;;;;4980927;28;20225;-49
2022/04/05 08:20:20;;;;;;;3.53;3.22;;;6.80;99.90;;;;;;4980718;28;20202;-50
2022/04/05 08:22:48;;;;;;;3.42;3.13;;;6.80;99.90;;;;;;4981308;28;20202;-51
2022/04/05 08:25:17;;;;;;;4.05;3.47;;;6.80;99.90;;;;;;4980492;28;20285;-52
2022/04/05 08:27:48;;;;;;;3.72;3.42;;;6.70;99.90;;;;;;4981194;28;20222;-49
2022/04/05 08:30:18;;;;;;;3.90;3.60;;;6.80;99.90;;;;;;4978604;28;20245;-56
2022/04/05 08:32:49;;;;;;;4.38;4.05;;;7.00;99.90;;;;;;4981300;28;20205;-53
2022/04/05 08:35:20;;;;;;;3.25;3.00;;;7.30;99.90;;;;;;4980983;28;20206;-52
2022/04/05 08:37:49;;;;;;;5.32;4.13;;;7.30;99.90;;;;;;4981405;28;20288;-51
2022/04/05 08:40:18;;;;;;;4.30;3.85;;;7.70;99.90;;;;;;4980816;28;20419;-49
2022/04/05 08:42:49;;;;;;;5.07;4.53;;;7.90;99.90;;;;;;4984337;28;20278;-57
2022/04/05 08:45:19;;;;;;;3.88;3.55;;;8.00;99.90;;;;;;4988044;28;20501;-53
2022/04/05 08:47:50;;;;;;;4.13;3.78;;;8.00;99.90;;;;;;4987700;28;20214;-55
2022/04/05 08:50:26;;;;;;;5.10;4.68;;;7.80;99.90;;;;;;4984455;28;20226;-57
2022/04/05 08:52:56;;;;;;;4.25;3.95;;;7.70;99.90;;;;;;4985587;28;20204;-55
2022/04/05 08:55:23;;;;;;;4.55;4.15;;;7.50;99.90;;;;;;4981467;28;20238;-49
2022/04/05 08:57:51;;;;;;;3.65;3.35;;;7.40;99.90;;;;;;4980708;28;20246;-49
2022/04/05 09:00:19;;;;;;;4.22;3.92;;;7.50;99.90;;;;;;4980721;28;20553;-48
2022/04/05 09:03:01;;;;;;;5.90;4.35;;;7.70;99.90;;;;;;4973886;28;20395;-50
2022/04/05 09:05:37;;;;;;;4.28;3.95;;;7.80;99.90;;;;;;4979393;28;20206;-49
2022/04/05 09:08:23;;;;;;;3.58;3.28;;;8.00;99.90;;;;;;4979066;28;20241;-49
2022/04/05 09:10:55;;;;;;;3.90;3.60;;;8.00;99.90;;;;;;4979962;28;20226;-48
2022/04/05 09:13:25;;;;;;;3.50;3.20;;;7.90;99.90;;;;;;4979374;28;20210;-48
2022/04/05 09:15:57;;;;;;;3.25;2.95;;;8.00;99.90;;;;;;4980263;28;20209;-52
2022/04/05 09:18:48;;;;;;;3.17;2.92;;;8.40;99.90;;;;;;4981465;28;20215;-52
2022/04/05 09:21:16;;;;;;;2.65;2.50;;;8.60;99.90;;;;;;4979505;28;20401;-51
2022/04/05 09:23:44;;;;;;;3.75;2.92;;;8.30;99.90;;;;;;4986138;28;20211;-52
2022/04/05 09:26:18;;;;;;;3.55;3.20;;;7.90;99.90;;;;;;4981850;28;20208;-50
2022/04/05 09:28:48;;;;;;;3.60;3.30;;;7.50;99.90;;;;;;4980133;28;20244;-54
2022/04/05 09:31:21;;;;;;;3.10;2.80;;;7.30;99.90;;;;;;4982103;28;20280;-49
2022/04/05 09:34:08;;;;;;;2.92;2.70;;;7.40;99.90;;;;;;4984309;28;20270;-48
2022/04/05 09:36:42;;;;;;;2.60;2.40;;;7.60;99.90;;;;;;4983015;28;20250;-53
2022/04/05 09:39:17;;;;;;;1.65;1.55;;;7.80;99.90;;;;;;4984807;28;20202;-56
2022/04/05 09:41:52;;;;;;;1.88;1.77;;;8.30;99.90;;;;;;4985338;28;20217;-52
2022/04/05 09:44:30;;;;;;;2.63;1.90;;;8.90;99.90;;;;;;4986685;28;20233;-51
2022/04/05 09:47:14;;;;;;;2.20;2.03;;;9.60;99.90;;;;;;4990341;28;20290;-57
2022/04/05 09:49:43;;;;;;;1.50;1.40;;;9.90;99.90;;;;;;4989943;28;20205;-52
2022/04/05 09:52:30;;;;;;;1.30;1.20;;;10.30;99.90;;;;;;4990244;28;20200;-51
2022/04/05 09:55:13;;;;;;;2.28;1.30;;;10.90;99.90;;;;;;4983819;28;20199;-56
2022/04/05 09:57:42;;;;;;;0.63;0.63;;;11.30;99.90;;;;;;4983583;28;20221;-56
2022/04/05 10:00:11;;;;;;;0.80;0.80;;;11.40;99.90;;;;;;4983307;28;20252;-49
2022/04/05 10:03:02;;;;;;;0.85;0.85;;;11.30;99.90;;;;;;4983298;28;20212;-56
2022/04/05 10:05:31;;;;;;;1.55;1.20;;;11.30;99.90;;;;;;4983268;28;20251;-53
2022/04/05 10:08:00;;;;;;;1.20;1.10;;;11.40;99.90;;;;;;4983328;28;20234;-53
2022/04/05 10:10:27;;;;;;;1.15;1.00;;;11.10;99.90;;;;;;4983057;28;20240;-47
2022/04/05 10:12:56;;;;;;;2.45;1.15;;;11.00;99.90;;;;;;4983391;28;20336;-52
2022/04/05 10:15:24;;;;;;;2.60;0.88;;;11.00;99.90;;;;;;4983324;28;20540;-52
2022/04/05 10:17:53;;;;;;;1.45;1.10;;;10.50;99.90;;;;;;4983350;28;20224;-54
2022/04/05 10:20:22;;;;;;;0.98;0.88;;;10.20;99.90;;;;;;4983154;28;20204;-51
2022/04/05 10:22:56;;;;;;;1.73;1.25;;;10.60;99.90;;;;;;4983174;28;20204;-51
2022/04/05 10:25:24;;;;;;;1.30;1.20;;;10.50;99.90;;;;;;4983083;28;20274;-50
2022/04/05 10:27:52;;;;;;;1.55;0.82;;;10.50;99.90;;;;;;4982918;28;20400;-47
2022/04/05 10:30:38;;;;;;;1.70;1.40;;;10.40;99.90;;;;;;4982973;28;20224;-51
2022/04/05 10:33:18;;;;;;;1.08;1.02;;;10.30;99.90;;;;;;4982847;28;20412;-51
2022/04/05 10:35:55;;;;;;;2.55;1.30;;;10.00;99.90;;;;;;4981840;28;20255;-50
2022/04/05 10:38:22;;;;;;;1.40;1.20;;;10.30;99.90;;;;;;4982572;28;20454;-51
2022/04/05 10:41:12;;;;;;;1.73;1.42;;;11.10;99.90;;;;;;4983821;28;20268;-51
2022/04/05 10:43:40;;;;;;;1.95;1.63;;;11.30;99.90;;;;;;4982676;28;20205;-50
2022/04/05 10:46:08;;;;;;;2.60;1.80;;;11.80;99.90;;;;;;4982878;28;20528;-52
2022/04/05 10:48:37;;;;;;;2.65;1.75;;;11.90;99.90;;;;;;4982444;28;20316;-54
2022/04/05 10:51:05;;;;;;;1.38;1.10;;;12.00;99.90;;;;;;4982125;28;20245;-53
2022/04/05 10:53:35;;;;;;;2.40;1.20;;;11.50;99.90;;;;;;4982532;28;20201;-50
2022/04/05 10:56:03;;;;;;;3.13;1.85;;;11.10;99.90;;;;;;4982078;28;20229;-53
2022/04/05 10:58:55;;;;;;;1.92;1.60;;;10.90;99.90;;;;;;4982525;28;20221;-48
2022/04/05 11:01:39;;;;;;;1.23;1.23;;;10.80;99.90;;;;;;4982278;28;20208;-49
2022/04/05 11:04:17;;;;;;;4.35;1.42;;;11.00;99.90;;;;;;4982326;28;20220;-53
2022/04/05 11:06:59;;;;;;;2.03;1.20;;;11.00;99.90;;;;;;4982223;28;20256;-52
2022/04/05 11:09:31;;;;;;;2.85;1.40;;;10.90;99.90;;;;;;4982303;28;20533;-51
2022/04/05 11:12:17;;;;;;;3.35;1.77;;;11.20;99.90;;;;;;4981895;28;20237;-56
2022/04/05 11:14:49;;;;;;;3.22;1.58;;;11.20;99.90;;;;;;4982630;28;20247;-50
2022/04/05 11:17:19;;;;;;;2.45;1.58;;;10.90;99.90;;;;;;4963010;28;20226;-51
2022/04/05 11:19:51;;;;;;;3.08;1.45;;;10.90;99.90;;;;;;4963107;28;20202;-52
2022/04/05 11:22:21;;;;;;;1.73;0.98;;;10.90;99.90;;;;;;4962779;28;20205;-50
2022/04/05 11:25:04;;;;;;;3.58;1.65;;;11.10;99.90;;;;;;4964337;28;20244;-52
2022/04/05 11:27:48;;;;;;;2.72;1.80;;;11.30;99.90;;;;;;4967119;28;20568;-54
2022/04/05 11:30:49;;;;;;;2.55;1.92;;;11.40;99.90;;;;;;4968969;29;20226;-52
2022/04/05 11:33:21;;;;;;;1.35;1.25;;;11.40;99.90;;;;;;4962888;28;20241;-50
2022/04/05 11:36:03;;;;;;;1.95;1.60;;;11.50;99.90;;;;;;4962294;28;20230;-53
2022/04/05 11:38:58;;;;;;;1.52;1.42;;;11.60;99.90;;;;;;4962381;28;20559;-52
2022/04/05 11:41:28;;;;;;;2.20;2.10;;;11.80;99.90;;;;;;4962246;28;20523;-56
2022/04/05 11:44:05;;;;;;;6.50;2.40;;;12.00;99.90;;;;;;4962338;28;20542;-53
2022/04/05 11:46:37;;;;;;;2.10;1.80;;;11.90;99.90;;;;;;4961946;28;20268;-51
2022/04/05 11:49:06;;;;;;;2.20;1.95;;;11.90;99.90;;;;;;4962934;28;20232;-54
2022/04/05 11:51:36;;;;;;;2.00;1.80;;;11.80;99.90;;;;;;4962532;28;20463;-54
2022/04/05 11:54:17;;;;;;;3.45;2.00;;;11.70;99.90;;;;;;4961237;28;20290;-53
2022/04/05 11:56:45;;;;;;;4.38;4.07;;;11.50;99.90;;;;;;4963232;28;20201;-51
2022/04/05 11:59:18;;;;;;;3.00;2.80;;;11.60;99.90;;;;;;4963950;28;20534;-54
2022/04/05 12:01:49;;;;;;;3.42;3.13;;;11.50;99.90;;;;;;4962555;28;20209;-52
2022/04/05 12:04:21;;;;;;;4.43;2.88;;;11.30;99.90;;;;;;4962317;28;20206;-49
2022/04/05 12:06:54;;;;;;;3.47;2.58;;;11.30;99.90;;;;;;4963592;28;20575;-50
2022/04/05 12:09:23;;;;;;;2.75;2.55;;;11.50;99.90;;;;;;4963099;29;20510;-48
2022/04/05 12:11:53;;;;;;;2.50;2.08;;;11.90;99.90;;;;;;4962123;28;20226;-56
2022/04/05 12:14:22;;;;;;;3.63;3.28;;;12.10;99.90;;;;;;4961706;29;20397;-49
2022/04/05 12:16:58;;;;;;;2.97;2.05;;;12.00;99.90;;;;;;4961682;28;20379;-49
2022/04/05 12:19:40;;;;;;;2.75;2.55;;;12.30;99.90;;;;;;4961591;28;20282;-49
2022/04/05 12:22:13;;;;;;;2.75;2.55;;;12.50;99.90;;;;;;4961538;28;20213;-50
2022/04/05 12:24:51;;;;;;;3.50;3.15;;;12.60;99.90;;;;;;4961732;28;20202;-53
2022/04/05 12:27:24;;;;;;;2.97;2.65;;;12.20;99.90;;;;;;4961766;28;20234;-51
2022/04/05 12:30:00;;;;;;;2.78;2.58;;;12.00;99.90;;;;;;4961927;28;20282;-56
2022/04/05 12:32:34;;;;;;;6.50;2.83;;;12.10;99.90;;;;;;4962101;28;20230;-49
2022/04/05 12:35:03;;;;;;;3.70;2.72;;;11.90;99.90;;;;;;4961529;28;20382;-55
2022/04/05 12:37:30;;;;;;;3.75;2.70;;;12.10;99.90;;;;;;4961574;28;20223;-51
2022/04/05 12:39:57;;;;;;;4.32;2.17;;;12.40;99.90;;;;;;4969978;28;20213;-53
2022/04/05 12:42:26;;;;;;;3.38;2.90;;;12.80;99.90;;;;;;4980669;28;20244;-55
2022/04/05 12:44:58;;;;;;;2.35;2.08;;;12.80;99.90;;;;;;4981107;28;20273;-51
2022/04/05 12:47:27;;;;;;;3.47;2.60;;;12.80;99.90;;;;;;4980652;28;20538;-52
2022/04/05 12:50:01;;;;;;;4.47;2.70;;;12.50;99.90;;;;;;4980936;28;20236;-50
2022/04/05 12:52:34;;;;;;;4.82;3.67;;;12.40;99.90;;;;;;4980651;28;20249;-52
2022/04/05 12:55:14;;;;;;;2.83;2.28;;;12.30;99.90;;;;;;4980916;28;20202;-53
2022/04/05 12:57:53;;;;;;;4.82;2.67;;;12.00;99.90;;;;;;4980912;28;20221;-55
2022/04/05 13:00:27;;;;;;;2.83;2.17;;;12.20;99.90;;;;;;4980878;28;20453;-52
2022/04/05 13:03:01;;;;;;;2.20;2.00;;;12.40;99.90;;;;;;4980590;28;20198;-54
2022/04/05 13:08:38;;;;;;;3.95;2.10;;;11.50;99.90;;;;;;4983715;28;20229;-52
2022/04/05 13:11:29;;;;;;;2.67;2.47;;;11.30;99.90;;;;;;4985730;28;20229;-51
2022/04/05 13:14:05;;;;;;;4.40;2.72;;;11.50;99.90;;;;;;4990883;28;20428;-52